Terminal Aerodrome Forecast
Issued by NWS Mt. Holly, NJ

Home | Current Version | Previous Version | Text Only | Print | Product List | Glossary On
Versions: 1 2 3 4 5 6 7 8 9 10 11 12 13 14 15 16 17 18 19 20 21 22 23 24
576
FTUS41 KPHI 241120
TAFRDG
TAF
KRDG 241120Z 2412/2512 34010KT P6SM -RADZ OVC015
     FM242100 31012G18KT P6SM BKN035
     FM250300 31012KT P6SM SCT100
     FM250800 31010KT P6SM BKN035=

USA.gov is the U.S. government's official web portal to all federal, state and local government web resources and services.